KINS/INS METAR and TAF weather

Enter ICAO airport designator
Station Type Date Time Source
KINS METAR 2023/02/04 02:55 UTC NOAA

KINS 040255Z AUTO 31006KT 10SM CLR 09/M05 A3018 RMK AO2 SLP216 T00881055 55001 $


Station Type Date Time Source
KINS Decoded METAR 2023/02/04 02:55 UTC NOAA

Indian Springs, Indian Springs Auxiliary AFLD Nellis AFB, NV, United States (KINS) 36-35N 115-40W
Feb 03, 2023 - 09:55 PM EST / 2023.02.04 0255 UTC
Wind: from the NW (310 degrees) at 7 MPH (6 KT):0
Visibility: 10 mile(s):0
Sky conditions: clear
Temperature: 47.8 F (8.8 C)
Dew Point: 22.1 F (-5.5 C)
Relative Humidity: 35%
Pressure (altimeter): 30.18 in. Hg (1022 hPa)
Pressure tendency: 0.00 inches (0.1 hPa) lower than three hours ago
ob: KINS 040255Z AUTO 31006KT 10SM CLR 09/M05 A3018 RMK AO2 SLP216 T00881055 55001
cycle: 3

Station Type Date Time Source
KINS TAF 2023/02/03 21:58 UTC NOAA

TAF KINS 032056Z 0321/0503 14012KT 9999 FEW140 FEW180 BKN240 QNH3020INS
BECMG 0401/0402 VRB06KT 9999 SCT120 BKN210 QNH3017INS
BECMG 0421/0422 10009KT 9999 SCT130 BKN250 QNH3014INS TX14/0323Z TNM01/0400Z

Example: see airport list